TimeAKST,TemperatureF,Dew PointF,Humidity,Sea Level PressureIn,VisibilityMPH,Wind Direction,Wind SpeedMPH,Gust SpeedMPH,PrecipitationIn,Events,Conditions,WindDirDegrees,DateUTC
12:53 AM,39.0,33.1,79,30.32,10.0,SSE,5.8,-,N/A,,Partly Cloudy,160,2013-03-04 09:53:00
1:53 AM,39.0,33.1,79,30.32,10.0,Variable,4.6,-,N/A,,Clear,0,2013-03-04 10:53:00
2:53 AM,35.1,33.1,92,30.34,10.0,Calm,Calm,-,N/A,,Mostly Cloudy,0,2013-03-04 11:53:00
3:53 AM,35.1,33.1,92,30.35,10.0,Calm,Calm,-,N/A,,Overcast,0,2013-03-04 12:53:00
4:53 AM,35.1,33.1,92,30.36,10.0,Calm,Calm,-,N/A,,Overcast,0,2013-03-04 13:53:00
5:53 AM,35.1,34.0,96,30.36,10.0,Calm,Calm,-,N/A,,Overcast,0,2013-03-04 14:53:00
6:53 AM,35.1,34.0,96,30.38,10.0,Calm,Calm,-,0.00,,Overcast,0,2013-03-04 15:53:00
7:53 AM,35.1,34.0,96,30.38,10.0,Calm,Calm,-,0.01,Rain,Light Rain,0,2013-03-04 16:53:00
8:53 AM,35.1,34.0,96,30.39,10.0,South,3.5,-,0.00,Rain,Light Rain,180,2013-03-04 17:53:00
9:53 AM,36.0,34.0,93,30.39,10.0,Calm,Calm,-,0.00,,Overcast,0,2013-03-04 18:53:00
10:53 AM,37.0,36.0,96,30.39,10.0,Calm,Calm,-,N/A,,Overcast,0,2013-03-04 19:53:00
11:53 AM,39.9,36.0,86,30.40,10.0,South,5.8,-,0.00,Rain,Light Rain,180,2013-03-04 20:53:00
12:53 PM,39.0,35.1,86,30.40,10.0,South,5.8,-,0.00,Rain,Light Rain,170,2013-03-04 21:53:00
1:53 PM,39.0,35.1,86,30.39,10.0,Variable,3.5,-,0.01,Rain,Light Rain,0,2013-03-04 22:53:00
2:53 PM,39.9,35.1,83,30.38,10.0,Calm,Calm,-,0.00,,Overcast,0,2013-03-04 23:53:00
3:53 PM,39.0,34.0,82,30.37,10.0,South,6.9,-,N/A,,Overcast,190,2013-03-05 00:53:00
4:53 PM,39.0,33.1,79,30.36,10.0,Calm,Calm,-,N/A,,Overcast,0,2013-03-05 01:53:00
5:53 PM,37.9,34.0,86,30.36,10.0,South,4.6,-,N/A,,Overcast,180,2013-03-05 02:53:00
6:53 PM,36.0,34.0,93,30.35,10.0,Calm,Calm,-,N/A,,Overcast,0,2013-03-05 03:53:00
7:53 PM,37.0,32.0,82,30.33,10.0,South,6.9,-,N/A,,Scattered Clouds,170,2013-03-05 04:53:00
8:53 PM,36.0,32.0,86,30.32,10.0,Calm,Calm,-,N/A,,Clear,0,2013-03-05 05:53:00
9:53 PM,36.0,33.1,89,30.31,10.0,SSW,5.8,-,N/A,,Mostly Cloudy,200,2013-03-05 06:53:00
10:53 PM,34.0,32.0,92,30.31,10.0,Calm,Calm,-,N/A,,Overcast,0,2013-03-05 07:53:00
11:53 PM,35.1,32.0,89,30.30,10.0,Calm,Calm,-,N/A,,Overcast,0,2013-03-05 08:53:00